Portada
METAR-TAF:

METAR-TAF

Aeroports :

Xiamen, Xina

latitud: 24-29N, longitud: 118-05E, altitud: 139 m

Observació

L'informe es va fer fa 23 minuts, a les 05:00 UTC
Vent 4 kt del Est, variant entre Nord-Est i Sud
Temperatura 22°C
Humitat 57%
Pressió 1017 hPa
Visibilitat 10 km o més
sense núvols per sota de 1500 mi sense presència de cumulonimbus.

METAR: ZSAM 100500Z 09002MPS 040V180 CAVOK 22/13 Q1017 NOSIG

Hora: 13:23 (05:23 UTC)

Pronòstic

L'informe es va fer fa 10 hores i 9 minuts, a les 19:14 UTC
Pronòstic vàlid del 10 a les 00 UTC al 10 a les 24 UTC
Vent 8 kt del Est amb ràfegues de 17 kt
Visibilitat: 8000 m
Núvols disperses a una alçada de 3000 ft

TAF: ZSAM 091914Z 1000/1024 09004G09MPS 8000 SCT030 TX22/1006Z TN14/1021Z

Observacions i pronòstics meteorològics de més de 4000 aeroports (METAR i TAF).

Les estacions disponibles són els punts grocs i vermells al mapa.

Posi el ratolí al punt desitjat per veure el nom de l'estació.

Feu clic per veure les observacions i els pronòstics meteorològics.

Per canviar el mapa: feu clic els botons verds amb una creu de color negre per apropar; al botó verd amb un guió per allunyar la imatge; o en les fletxes verdes per a mapes adjacents.


METAR-TAF: